sensor_id;sensor_type;location;lat;lon;timestamp;temperature;humidity
20081;DHT22;10200;49.232;9.222;2022-08-19T00:01:12;23.10;82.40
20081;DHT22;10200;49.232;9.222;2022-08-19T00:03:38;23.10;81.00
20081;DHT22;10200;49.232;9.222;2022-08-19T00:06:04;23.20;81.00
20081;DHT22;10200;49.232;9.222;2022-08-19T00:08:30;23.20;80.50
20081;DHT22;10200;49.232;9.222;2022-08-19T00:10:56;23.20;80.60
20081;DHT22;10200;49.232;9.222;2022-08-19T00:13:21;23.20;80.00
20081;DHT22;10200;49.232;9.222;2022-08-19T00:15:47;23.30;80.00
20081;DHT22;10200;49.232;9.222;2022-08-19T00:18:12;23.30;79.60
20081;DHT22;10200;49.232;9.222;2022-08-19T00:20:38;23.30;79.30
20081;DHT22;10200;49.232;9.222;2022-08-19T00:23:06;23.30;79.30
20081;DHT22;10200;49.232;9.222;2022-08-19T00:25:32;23.30;79.10
20081;DHT22;10200;49.232;9.222;2022-08-19T00:27:58;23.40;79.00
20081;DHT22;10200;49.232;9.222;2022-08-19T00:30:25;23.40;79.20
20081;DHT22;10200;49.232;9.222;2022-08-19T00:32:52;23.40;79.00
20081;DHT22;10200;49.232;9.222;2022-08-19T00:35:20;23.40;79.10
20081;DHT22;10200;49.232;9.222;2022-08-19T00:37:48;23.40;79.00
20081;DHT22;10200;49.232;9.222;2022-08-19T00:40:14;23.40;78.90
20081;DHT22;10200;49.232;9.222;2022-08-19T00:42:40;23.40;79.30
20081;DHT22;10200;49.232;9.222;2022-08-19T00:45:13;23.40;79.10
20081;DHT22;10200;49.232;9.222;2022-08-19T00:47:39;23.40;79.20
20081;DHT22;10200;49.232;9.222;2022-08-19T00:50:06;23.40;79.50
20081;DHT22;10200;49.232;9.222;2022-08-19T00:52:36;23.40;79.60
20081;DHT22;10200;49.232;9.222;2022-08-19T00:55:07;23.30;79.40
20081;DHT22;10200;49.232;9.222;2022-08-19T00:57:39;23.30;79.80
20081;DHT22;10200;49.232;9.222;2022-08-19T01:00:09;23.30;79.90
20081;DHT22;10200;49.232;9.222;2022-08-19T01:02:37;23.30;79.90
20081;DHT22;10200;49.232;9.222;2022-08-19T01:05:08;23.30;79.80
20081;DHT22;10200;49.232;9.222;2022-08-19T01:07:34;23.30;79.70
20081;DHT22;10200;49.232;9.222;2022-08-19T01:10:01;23.30;79.80
20081;DHT22;10200;49.232;9.222;2022-08-19T01:12:26;23.30;79.60
20081;DHT22;10200;49.232;9.222;2022-08-19T01:14:52;23.30;79.50
20081;DHT22;10200;49.232;9.222;2022-08-19T01:17:19;23.30;79.60
20081;DHT22;10200;49.232;9.222;2022-08-19T01:19:45;23.20;80.20
20081;DHT22;10200;49.232;9.222;2022-08-19T01:24:48;23.20;81.40
20081;DHT22;10200;49.232;9.222;2022-08-19T01:27:14;23.20;81.70
20081;DHT22;10200;49.232;9.222;2022-08-19T01:29:42;23.20;81.70
20081;DHT22;10200;49.232;9.222;2022-08-19T01:32:10;23.20;81.90
20081;DHT22;10200;49.232;9.222;2022-08-19T01:34:37;23.30;81.90
20081;DHT22;10200;49.232;9.222;2022-08-19T01:37:07;23.30;81.30
20081;DHT22;10200;49.232;9.222;2022-08-19T01:39:34;23.20;81.40
20081;DHT22;10200;49.232;9.222;2022-08-19T01:42:00;23.20;81.30
20081;DHT22;10200;49.232;9.222;2022-08-19T01:44:28;23.20;81.60
20081;DHT22;10200;49.232;9.222;2022-08-19T01:46:54;23.20;81.20
20081;DHT22;10200;49.232;9.222;2022-08-19T01:49:22;23.20;81.20
20081;DHT22;10200;49.232;9.222;2022-08-19T01:51:50;23.20;81.40
20081;DHT22;10200;49.232;9.222;2022-08-19T01:54:17;23.10;81.40
20081;DHT22;10200;49.232;9.222;2022-08-19T01:56:43;23.20;81.90
20081;DHT22;10200;49.232;9.222;2022-08-19T01:59:20;23.20;81.90
20081;DHT22;10200;49.232;9.222;2022-08-19T02:01:47;23.20;81.90
20081;DHT22;10200;49.232;9.222;2022-08-19T02:04:13;23.20;81.90
20081;DHT22;10200;49.232;9.222;2022-08-19T02:06:39;23.20;82.10
20081;DHT22;10200;49.232;9.222;2022-08-19T02:09:06;23.20;82.00
20081;DHT22;10200;49.232;9.222;2022-08-19T02:11:34;23.20;82.00
20081;DHT22;10200;49.232;9.222;2022-08-19T02:14:04;23.20;82.30
20081;DHT22;10200;49.232;9.222;2022-08-19T02:16:31;23.20;82.20
20081;DHT22;10200;49.232;9.222;2022-08-19T02:18:58;23.20;82.50
20081;DHT22;10200;49.232;9.222;2022-08-19T02:21:26;23.10;82.40
20081;DHT22;10200;49.232;9.222;2022-08-19T02:23:52;23.10;82.40
20081;DHT22;10200;49.232;9.222;2022-08-19T02:26:19;23.10;82.60
20081;DHT22;10200;49.232;9.222;2022-08-19T02:28:45;23.10;82.80
20081;DHT22;10200;49.232;9.222;2022-08-19T02:31:12;23.10;82.80
20081;DHT22;10200;49.232;9.222;2022-08-19T02:33:38;23.10;82.80
20081;DHT22;10200;49.232;9.222;2022-08-19T02:36:05;23.10;83.00
20081;DHT22;10200;49.232;9.222;2022-08-19T02:38:30;23.10;83.20
20081;DHT22;10200;49.232;9.222;2022-08-19T02:41:02;23.00;82.90
20081;DHT22;10200;49.232;9.222;2022-08-19T02:43:30;23.00;83.20
20081;DHT22;10200;49.232;9.222;2022-08-19T02:45:56;23.00;83.60
20081;DHT22;10200;49.232;9.222;2022-08-19T02:48:24;22.90;83.50
20081;DHT22;10200;49.232;9.222;2022-08-19T02:50:51;22.90;83.80
20081;DHT22;10200;49.232;9.222;2022-08-19T02:53:21;22.90;83.80
20081;DHT22;10200;49.232;9.222;2022-08-19T02:55:47;22.90;83.80
20081;DHT22;10200;49.232;9.222;2022-08-19T02:58:14;22.90;84.20
20081;DHT22;10200;49.232;9.222;2022-08-19T03:00:45;22.90;84.30
20081;DHT22;10200;49.232;9.222;2022-08-19T03:03:11;22.90;84.30
20081;DHT22;10200;49.232;9.222;2022-08-19T03:05:37;22.90;84.10
20081;DHT22;10200;49.232;9.222;2022-08-19T03:08:03;22.90;84.30
20081;DHT22;10200;49.232;9.222;2022-08-19T03:10:29;22.90;84.60
20081;DHT22;10200;49.232;9.222;2022-08-19T03:12:55;22.90;84.30
20081;DHT22;10200;49.232;9.222;2022-08-19T03:15:20;22.90;84.60
20081;DHT22;10200;49.232;9.222;2022-08-19T03:17:46;22.90;84.70
20081;DHT22;10200;49.232;9.222;2022-08-19T03:20:11;22.90;84.70
20081;DHT22;10200;49.232;9.222;2022-08-19T03:22:37;22.80;84.80
20081;DHT22;10200;49.232;9.222;2022-08-19T03:25:03;22.80;85.00
20081;DHT22;10200;49.232;9.222;2022-08-19T03:27:29;22.80;85.10
20081;DHT22;10200;49.232;9.222;2022-08-19T03:29:55;22.80;85.30
20081;DHT22;10200;49.232;9.222;2022-08-19T03:32:21;22.70;85.60
20081;DHT22;10200;49.232;9.222;2022-08-19T03:34:47;22.70;85.80
20081;DHT22;10200;49.232;9.222;2022-08-19T03:37:13;22.70;85.70
20081;DHT22;10200;49.232;9.222;2022-08-19T03:39:39;22.70;85.90
20081;DHT22;10200;49.232;9.222;2022-08-19T03:42:06;22.70;86.30
20081;DHT22;10200;49.232;9.222;2022-08-19T03:44:32;22.70;86.10
20081;DHT22;10200;49.232;9.222;2022-08-19T03:46:59;22.60;86.70
20081;DHT22;10200;49.232;9.222;2022-08-19T03:49:27;22.60;86.90
20081;DHT22;10200;49.232;9.222;2022-08-19T03:51:54;22.60;87.10
20081;DHT22;10200;49.232;9.222;2022-08-19T03:54:22;22.50;87.60
20081;DHT22;10200;49.232;9.222;2022-08-19T03:56:50;22.50;87.90
20081;DHT22;10200;49.232;9.222;2022-08-19T03:59:20;22.50;87.80
20081;DHT22;10200;49.232;9.222;2022-08-19T04:01:46;22.50;87.60
20081;DHT22;10200;49.232;9.222;2022-08-19T04:04:11;22.50;87.40
20081;DHT22;10200;49.232;9.222;2022-08-19T04:06:38;22.50;87.30
20081;DHT22;10200;49.232;9.222;2022-08-19T04:09:07;22.60;87.60
20081;DHT22;10200;49.232;9.222;2022-08-19T04:11:36;22.60;87.20
20081;DHT22;10200;49.232;9.222;2022-08-19T04:14:07;22.60;87.60
20081;DHT22;10200;49.232;9.222;2022-08-19T04:16:33;22.50;87.40
20081;DHT22;10200;49.232;9.222;2022-08-19T04:19:04;22.60;87.20
20081;DHT22;10200;49.232;9.222;2022-08-19T04:21:30;22.50;87.00
20081;DHT22;10200;49.232;9.222;2022-08-19T04:23:57;22.40;87.70
20081;DHT22;10200;49.232;9.222;2022-08-19T04:26:27;22.40;88.60
20081;DHT22;10200;49.232;9.222;2022-08-19T04:28:54;22.40;89.00
20081;DHT22;10200;49.232;9.222;2022-08-19T04:31:25;22.30;89.20
20081;DHT22;10200;49.232;9.222;2022-08-19T04:33:59;22.30;90.00
20081;DHT22;10200;49.232;9.222;2022-08-19T04:36:31;22.30;90.20
20081;DHT22;10200;49.232;9.222;2022-08-19T04:39:00;22.30;90.40
20081;DHT22;10200;49.232;9.222;2022-08-19T04:41:26;22.30;90.50
20081;DHT22;10200;49.232;9.222;2022-08-19T04:44:11;22.30;90.40
20081;DHT22;10200;49.232;9.222;2022-08-19T04:46:37;22.30;90.40
20081;DHT22;10200;49.232;9.222;2022-08-19T04:49:05;22.30;90.20
20081;DHT22;10200;49.232;9.222;2022-08-19T04:51:32;22.40;89.80
20081;DHT22;10200;49.232;9.222;2022-08-19T04:53:58;22.40;89.70
20081;DHT22;10200;49.232;9.222;2022-08-19T04:56:26;22.40;89.60
20081;DHT22;10200;49.232;9.222;2022-08-19T04:58:53;22.50;89.50
20081;DHT22;10200;49.232;9.222;2022-08-19T05:01:22;22.50;88.80
20081;DHT22;10200;49.232;9.222;2022-08-19T05:03:48;22.50;88.80
20081;DHT22;10200;49.232;9.222;2022-08-19T05:06:15;22.50;88.80
20081;DHT22;10200;49.232;9.222;2022-08-19T05:08:42;22.50;88.50
20081;DHT22;10200;49.232;9.222;2022-08-19T05:11:29;22.60;88.30
20081;DHT22;10200;49.232;9.222;2022-08-19T05:13:56;22.60;88.20
20081;DHT22;10200;49.232;9.222;2022-08-19T05:16:24;22.60;88.10
20081;DHT22;10200;49.232;9.222;2022-08-19T05:18:50;22.60;88.20
20081;DHT22;10200;49.232;9.222;2022-08-19T05:21:35;22.60;88.30
20081;DHT22;10200;49.232;9.222;2022-08-19T05:24:21;22.60;89.00
20081;DHT22;10200;49.232;9.222;2022-08-19T05:26:49;22.60;89.40
20081;DHT22;10200;49.232;9.222;2022-08-19T05:29:18;22.60;89.60
20081;DHT22;10200;49.232;9.222;2022-08-19T05:31:45;22.60;89.30
20081;DHT22;10200;49.232;9.222;2022-08-19T05:34:11;22.60;88.80
20081;DHT22;10200;49.232;9.222;2022-08-19T05:36:40;22.60;89.20
20081;DHT22;10200;49.232;9.222;2022-08-19T05:39:10;22.70;89.00
20081;DHT22;10200;49.232;9.222;2022-08-19T05:41:36;22.60;88.80
20081;DHT22;10200;49.232;9.222;2022-08-19T05:44:06;22.60;87.90
20081;DHT22;10200;49.232;9.222;2022-08-19T05:46:35;22.70;88.40
20081;DHT22;10200;49.232;9.222;2022-08-19T05:49:03;22.80;88.40
20081;DHT22;10200;49.232;9.222;2022-08-19T05:51:30;22.70;88.40
20081;DHT22;10200;49.232;9.222;2022-08-19T05:53:55;22.90;88.10
20081;DHT22;10200;49.232;9.222;2022-08-19T05:56:21;22.90;88.30
20081;DHT22;10200;49.232;9.222;2022-08-19T05:58:46;22.90;88.30
20081;DHT22;10200;49.232;9.222;2022-08-19T06:01:15;23.00;88.10
20081;DHT22;10200;49.232;9.222;2022-08-19T06:03:42;23.00;87.90
20081;DHT22;10200;49.232;9.222;2022-08-19T06:06:09;23.00;87.30
20081;DHT22;10200;49.232;9.222;2022-08-19T06:08:36;22.90;86.60
20081;DHT22;10200;49.232;9.222;2022-08-19T06:13:39;22.90;87.00
20081;DHT22;10200;49.232;9.222;2022-08-19T06:16:05;22.90;87.20
20081;DHT22;10200;49.232;9.222;2022-08-19T06:18:30;22.90;87.00
20081;DHT22;10200;49.232;9.222;2022-08-19T06:20:56;23.00;87.50
20081;DHT22;10200;49.232;9.222;2022-08-19T06:23:22;23.00;87.30
20081;DHT22;10200;49.232;9.222;2022-08-19T06:25:47;23.00;87.00
20081;DHT22;10200;49.232;9.222;2022-08-19T06:28:13;23.00;86.40
20081;DHT22;10200;49.232;9.222;2022-08-19T06:30:38;23.10;87.00
20081;DHT22;10200;49.232;9.222;2022-08-19T06:33:04;23.10;86.80
20081;DHT22;10200;49.232;9.222;2022-08-19T06:35:30;23.10;86.50
20081;DHT22;10200;49.232;9.222;2022-08-19T06:37:55;23.10;86.50
20081;DHT22;10200;49.232;9.222;2022-08-19T06:40:21;23.20;86.40
20081;DHT22;10200;49.232;9.222;2022-08-19T06:42:47;23.20;86.40
20081;DHT22;10200;49.232;9.222;2022-08-19T06:45:12;23.20;85.80
20081;DHT22;10200;49.232;9.222;2022-08-19T06:47:38;23.20;85.80
20081;DHT22;10200;49.232;9.222;2022-08-19T06:50:04;23.20;86.00
20081;DHT22;10200;49.232;9.222;2022-08-19T06:52:31;23.20;86.30
20081;DHT22;10200;49.232;9.222;2022-08-19T06:54:58;23.30;85.70
20081;DHT22;10200;49.232;9.222;2022-08-19T06:57:25;23.30;85.90
20081;DHT22;10200;49.232;9.222;2022-08-19T06:59:51;23.30;85.80
20081;DHT22;10200;49.232;9.222;2022-08-19T07:02:17;23.30;85.40
20081;DHT22;10200;49.232;9.222;2022-08-19T07:04:43;23.30;85.40
20081;DHT22;10200;49.232;9.222;2022-08-19T07:07:11;23.30;85.20
20081;DHT22;10200;49.232;9.222;2022-08-19T07:09:40;23.30;85.30
20081;DHT22;10200;49.232;9.222;2022-08-19T07:12:08;23.40;85.60
20081;DHT22;10200;49.232;9.222;2022-08-19T07:14:35;23.40;85.20
20081;DHT22;10200;49.232;9.222;2022-08-19T07:17:11;23.50;84.90
20081;DHT22;10200;49.232;9.222;2022-08-19T07:19:38;23.50;85.20
20081;DHT22;10200;49.232;9.222;2022-08-19T07:22:06;23.60;84.50
20081;DHT22;10200;49.232;9.222;2022-08-19T07:24:32;23.60;84.10
20081;DHT22;10200;49.232;9.222;2022-08-19T07:27:01;23.70;84.40
20081;DHT22;10200;49.232;9.222;2022-08-19T07:29:29;23.80;84.10
20081;DHT22;10200;49.232;9.222;2022-08-19T07:31:56;23.80;83.90
20081;DHT22;10200;49.232;9.222;2022-08-19T07:34:25;24.00;83.40
20081;DHT22;10200;49.232;9.222;2022-08-19T07:36:52;23.90;82.80
20081;DHT22;10200;49.232;9.222;2022-08-19T07:39:21;24.00;82.90
20081;DHT22;10200;49.232;9.222;2022-08-19T07:41:48;24.10;82.80
20081;DHT22;10200;49.232;9.222;2022-08-19T07:44:15;24.20;82.50
20081;DHT22;10200;49.232;9.222;2022-08-19T07:46:43;24.30;82.00
20081;DHT22;10200;49.232;9.222;2022-08-19T07:49:13;24.30;81.10
20081;DHT22;10200;49.232;9.222;2022-08-19T07:51:45;24.30;80.90
20081;DHT22;10200;49.232;9.222;2022-08-19T07:54:11;24.30;80.60
20081;DHT22;10200;49.232;9.222;2022-08-19T07:56:37;24.30;80.90
20081;DHT22;10200;49.232;9.222;2022-08-19T07:59:03;24.30;80.50
20081;DHT22;10200;49.232;9.222;2022-08-19T08:01:30;24.30;81.30
20081;DHT22;10200;49.232;9.222;2022-08-19T08:03:57;24.40;81.20
20081;DHT22;10200;49.232;9.222;2022-08-19T08:06:41;24.40;80.80
20081;DHT22;10200;49.232;9.222;2022-08-19T08:09:35;24.30;80.50
20081;DHT22;10200;49.232;9.222;2022-08-19T08:12:10;24.30;80.50
20081;DHT22;10200;49.232;9.222;2022-08-19T08:14:44;24.30;80.70
20081;DHT22;10200;49.232;9.222;2022-08-19T08:17:12;24.40;81.20
20081;DHT22;10200;49.232;9.222;2022-08-19T08:19:38;24.40;81.90
20081;DHT22;10200;49.232;9.222;2022-08-19T08:22:07;24.40;80.90
20081;DHT22;10200;49.232;9.222;2022-08-19T08:24:33;24.40;80.60
20081;DHT22;10200;49.232;9.222;2022-08-19T08:27:01;24.40;80.80
20081;DHT22;10200;49.232;9.222;2022-08-19T08:29:28;24.40;80.90
20081;DHT22;10200;49.232;9.222;2022-08-19T08:31:54;24.40;81.20
20081;DHT22;10200;49.232;9.222;2022-08-19T08:34:20;24.50;80.90
20081;DHT22;10200;49.232;9.222;2022-08-19T08:36:47;24.60;80.80
20081;DHT22;10200;49.232;9.222;2022-08-19T08:39:15;24.60;80.40
20081;DHT22;10200;49.232;9.222;2022-08-19T08:41:52;24.70;80.50
20081;DHT22;10200;49.232;9.222;2022-08-19T08:47:22;24.90;79.80
20081;DHT22;10200;49.232;9.222;2022-08-19T08:49:59;24.90;79.50
20081;DHT22;10200;49.232;9.222;2022-08-19T08:52:30;24.90;79.20
20081;DHT22;10200;49.232;9.222;2022-08-19T08:54:59;24.90;78.80
20081;DHT22;10200;49.232;9.222;2022-08-19T09:00:25;25.00;78.90
20081;DHT22;10200;49.232;9.222;2022-08-19T09:02:53;25.00;79.10
20081;DHT22;10200;49.232;9.222;2022-08-19T09:05:20;25.00;79.20
20081;DHT22;10200;49.232;9.222;2022-08-19T09:08:07;25.00;79.20
20081;DHT22;10200;49.232;9.222;2022-08-19T09:11:00;25.00;79.10
20081;DHT22;10200;49.232;9.222;2022-08-19T09:14:14;25.00;79.00
20081;DHT22;10200;49.232;9.222;2022-08-19T09:16:36;25.00;79.00
20081;DHT22;10200;49.232;9.222;2022-08-19T09:19:07;25.10;78.90
20081;DHT22;10200;49.232;9.222;2022-08-19T09:21:33;25.10;79.20
20081;DHT22;10200;49.232;9.222;2022-08-19T09:24:01;25.10;79.40
20081;DHT22;10200;49.232;9.222;2022-08-19T09:26:27;25.10;79.30
20081;DHT22;10200;49.232;9.222;2022-08-19T09:28:53;25.20;79.20
20081;DHT22;10200;49.232;9.222;2022-08-19T09:31:22;25.20;78.90
20081;DHT22;10200;49.232;9.222;2022-08-19T09:33:49;25.20;78.00
20081;DHT22;10200;49.232;9.222;2022-08-19T09:36:17;25.10;77.80
20081;DHT22;10200;49.232;9.222;2022-08-19T09:38:44;25.00;78.70
20081;DHT22;10200;49.232;9.222;2022-08-19T09:41:17;25.10;78.90
20081;DHT22;10200;49.232;9.222;2022-08-19T09:43:49;25.10;78.80
20081;DHT22;10200;49.232;9.222;2022-08-19T09:46:18;25.20;78.30
20081;DHT22;10200;49.232;9.222;2022-08-19T09:48:45;25.50;97.60
20081;DHT22;10200;49.232;9.222;2022-08-19T09:51:16;25.50;76.70
20081;DHT22;10200;49.232;9.222;2022-08-19T09:53:44;25.50;75.50
20081;DHT22;10200;49.232;9.222;2022-08-19T09:56:11;25.60;73.80
20081;DHT22;10200;49.232;9.222;2022-08-19T09:58:38;25.70;73.20
20081;DHT22;10200;49.232;9.222;2022-08-19T10:01:05;25.70;71.80
20081;DHT22;10200;49.232;9.222;2022-08-19T10:06:00;25.90;70.30
20081;DHT22;10200;49.232;9.222;2022-08-19T10:08:29;26.20;70.90
20081;DHT22;10200;49.232;9.222;2022-08-19T10:10:56;26.30;70.00
20081;DHT22;10200;49.232;9.222;2022-08-19T10:13:25;26.60;69.10
20081;DHT22;10200;49.232;9.222;2022-08-19T10:15:54;26.80;68.20
20081;DHT22;10200;49.232;9.222;2022-08-19T10:18:21;27.00;66.50
20081;DHT22;10200;49.232;9.222;2022-08-19T10:20:48;27.10;65.80
20081;DHT22;10200;49.232;9.222;2022-08-19T10:23:16;27.10;64.80
20081;DHT22;10200;49.232;9.222;2022-08-19T10:25:41;27.20;65.70
20081;DHT22;10200;49.232;9.222;2022-08-19T10:28:08;27.40;65.40
20081;DHT22;10200;49.232;9.222;2022-08-19T10:30:35;27.50;64.40
20081;DHT22;10200;49.232;9.222;2022-08-19T10:33:01;27.70;63.60
20081;DHT22;10200;49.232;9.222;2022-08-19T10:35:26;27.70;63.20
20081;DHT22;10200;49.232;9.222;2022-08-19T10:37:55;27.70;62.80
20081;DHT22;10200;49.232;9.222;2022-08-19T10:40:25;27.70;62.70
20081;DHT22;10200;49.232;9.222;2022-08-19T10:42:51;27.70;62.30
20081;DHT22;10200;49.232;9.222;2022-08-19T10:45:17;27.70;62.30
20081;DHT22;10200;49.232;9.222;2022-08-19T10:47:42;27.60;61.60
20081;DHT22;10200;49.232;9.222;2022-08-19T10:50:08;27.50;61.10
20081;DHT22;10200;49.232;9.222;2022-08-19T10:52:52;27.40;61.00
20081;DHT22;10200;49.232;9.222;2022-08-19T10:55:20;27.40;61.50
20081;DHT22;10200;49.232;9.222;2022-08-19T10:58:13;27.40;61.40
20081;DHT22;10200;49.232;9.222;2022-08-19T11:00:39;27.40;61.20
20081;DHT22;10200;49.232;9.222;2022-08-19T11:03:08;27.40;61.30
20081;DHT22;10200;49.232;9.222;2022-08-19T11:05:33;27.40;60.70
20081;DHT22;10200;49.232;9.222;2022-08-19T11:07:59;27.50;60.60
20081;DHT22;10200;49.232;9.222;2022-08-19T11:10:25;27.50;59.60
20081;DHT22;10200;49.232;9.222;2022-08-19T11:12:51;27.40;59.60
20081;DHT22;10200;49.232;9.222;2022-08-19T11:15:20;27.40;59.60
20081;DHT22;10200;49.232;9.222;2022-08-19T11:17:46;27.30;59.60
20081;DHT22;10200;49.232;9.222;2022-08-19T11:20:13;27.30;59.30
20081;DHT22;10200;49.232;9.222;2022-08-19T11:22:39;27.20;59.30
20081;DHT22;10200;49.232;9.222;2022-08-19T11:25:06;27.10;59.70
20081;DHT22;10200;49.232;9.222;2022-08-19T11:27:31;27.10;59.90
20081;DHT22;10200;49.232;9.222;2022-08-19T11:29:57;27.10;60.20
20081;DHT22;10200;49.232;9.222;2022-08-19T11:32:23;27.20;60.40
20081;DHT22;10200;49.232;9.222;2022-08-19T11:34:48;27.30;60.10
20081;DHT22;10200;49.232;9.222;2022-08-19T11:37:14;27.30;59.50
20081;DHT22;10200;49.232;9.222;2022-08-19T11:39:41;27.30;59.00
20081;DHT22;10200;49.232;9.222;2022-08-19T11:42:06;27.30;59.20
20081;DHT22;10200;49.232;9.222;2022-08-19T11:44:53;27.30;59.00
20081;DHT22;10200;49.232;9.222;2022-08-19T11:47:19;27.30;59.60
20081;DHT22;10200;49.232;9.222;2022-08-19T11:49:46;27.20;58.80
20081;DHT22;10200;49.232;9.222;2022-08-19T11:52:12;27.20;59.60
20081;DHT22;10200;49.232;9.222;2022-08-19T11:54:37;27.10;58.90
20081;DHT22;10200;49.232;9.222;2022-08-19T11:57:03;27.10;58.90
20081;DHT22;10200;49.232;9.222;2022-08-19T11:59:29;27.10;58.90
20081;DHT22;10200;49.232;9.222;2022-08-19T12:01:55;27.10;58.70
20081;DHT22;10200;49.232;9.222;2022-08-19T12:04:21;27.10;58.70
20081;DHT22;10200;49.232;9.222;2022-08-19T12:06:47;27.10;58.40
20081;DHT22;10200;49.232;9.222;2022-08-19T12:09:13;27.20;58.70
20081;DHT22;10200;49.232;9.222;2022-08-19T12:11:39;27.20;58.40
20081;DHT22;10200;49.232;9.222;2022-08-19T12:14:06;27.30;58.20
20081;DHT22;10200;49.232;9.222;2022-08-19T12:16:34;27.30;57.80
20081;DHT22;10200;49.232;9.222;2022-08-19T12:19:00;27.40;57.90
20081;DHT22;10200;49.232;9.222;2022-08-19T12:21:29;27.50;57.90
20081;DHT22;10200;49.232;9.222;2022-08-19T12:23:57;27.70;57.80
20081;DHT22;10200;49.232;9.222;2022-08-19T12:26:24;27.90;57.60
20081;DHT22;10200;49.232;9.222;2022-08-19T12:28:50;28.00;56.70
20081;DHT22;10200;49.232;9.222;2022-08-19T12:31:17;28.10;56.40
20081;DHT22;10200;49.232;9.222;2022-08-19T12:33:45;28.20;55.80
20081;DHT22;10200;49.232;9.222;2022-08-19T12:36:13;28.30;56.20
20081;DHT22;10200;49.232;9.222;2022-08-19T12:38:40;28.50;55.50
20081;DHT22;10200;49.232;9.222;2022-08-19T12:41:06;28.60;54.90
20081;DHT22;10200;49.232;9.222;2022-08-19T12:43:36;28.70;54.50
20081;DHT22;10200;49.232;9.222;2022-08-19T12:46:04;28.70;54.40
20081;DHT22;10200;49.232;9.222;2022-08-19T12:48:31;29.00;54.50
20081;DHT22;10200;49.232;9.222;2022-08-19T12:50:57;29.20;53.90
20081;DHT22;10200;49.232;9.222;2022-08-19T12:53:23;29.30;53.20
20081;DHT22;10200;49.232;9.222;2022-08-19T12:55:55;29.20;52.40
20081;DHT22;10200;49.232;9.222;2022-08-19T12:58:21;29.00;52.60
20081;DHT22;10200;49.232;9.222;2022-08-19T13:00:47;28.90;53.00
20081;DHT22;10200;49.232;9.222;2022-08-19T13:03:13;28.80;53.10
20081;DHT22;10200;49.232;9.222;2022-08-19T13:05:39;28.70;53.20
20081;DHT22;10200;49.232;9.222;2022-08-19T13:08:05;28.50;53.20
20081;DHT22;10200;49.232;9.222;2022-08-19T13:10:33;28.30;53.30
20081;DHT22;10200;49.232;9.222;2022-08-19T13:13:01;28.20;53.70
20081;DHT22;10200;49.232;9.222;2022-08-19T13:15:28;28.10;54.00
20081;DHT22;10200;49.232;9.222;2022-08-19T13:17:57;28.00;53.90
20081;DHT22;10200;49.232;9.222;2022-08-19T13:20:23;28.00;54.20
20081;DHT22;10200;49.232;9.222;2022-08-19T13:22:49;27.90;54.40
20081;DHT22;10200;49.232;9.222;2022-08-19T13:25:15;27.90;54.60
20081;DHT22;10200;49.232;9.222;2022-08-19T13:27:43;27.90;55.00
20081;DHT22;10200;49.232;9.222;2022-08-19T13:30:10;28.00;55.00
20081;DHT22;10200;49.232;9.222;2022-08-19T13:32:55;28.00;55.10
20081;DHT22;10200;49.232;9.222;2022-08-19T13:35:48;28.00;54.70
20081;DHT22;10200;49.232;9.222;2022-08-19T13:38:16;28.00;54.60
20081;DHT22;10200;49.232;9.222;2022-08-19T13:40:42;28.00;54.60
20081;DHT22;10200;49.232;9.222;2022-08-19T13:43:08;28.10;54.90
20081;DHT22;10200;49.232;9.222;2022-08-19T13:45:34;28.10;54.70
20081;DHT22;10200;49.232;9.222;2022-08-19T13:48:03;28.10;54.50
20081;DHT22;10200;49.232;9.222;2022-08-19T13:50:32;28.10;54.30
20081;DHT22;10200;49.232;9.222;2022-08-19T13:52:58;28.00;54.20
20081;DHT22;10200;49.232;9.222;2022-08-19T13:55:24;28.00;54.40
20081;DHT22;10200;49.232;9.222;2022-08-19T13:57:57;28.00;54.60
20081;DHT22;10200;49.232;9.222;2022-08-19T14:00:25;27.90;54.50
20081;DHT22;10200;49.232;9.222;2022-08-19T14:02:52;27.90;54.90
20081;DHT22;10200;49.232;9.222;2022-08-19T14:05:19;27.80;55.60
20081;DHT22;10200;49.232;9.222;2022-08-19T14:07:45;27.70;55.10
20081;DHT22;10200;49.232;9.222;2022-08-19T14:10:12;27.60;55.10
20081;DHT22;10200;49.232;9.222;2022-08-19T14:12:38;27.50;55.60
20081;DHT22;10200;49.232;9.222;2022-08-19T14:15:05;27.40;55.40
20081;DHT22;10200;49.232;9.222;2022-08-19T14:17:31;27.40;55.70
20081;DHT22;10200;49.232;9.222;2022-08-19T14:20:02;27.30;55.80
20081;DHT22;10200;49.232;9.222;2022-08-19T14:22:30;27.30;56.00
20081;DHT22;10200;49.232;9.222;2022-08-19T14:24:59;27.30;55.80
20081;DHT22;10200;49.232;9.222;2022-08-19T14:27:24;27.30;55.50
20081;DHT22;10200;49.232;9.222;2022-08-19T14:29:51;27.30;55.50
20081;DHT22;10200;49.232;9.222;2022-08-19T14:32:17;27.30;55.40
20081;DHT22;10200;49.232;9.222;2022-08-19T14:34:43;27.30;55.00
20081;DHT22;10200;49.232;9.222;2022-08-19T14:37:11;27.30;55.20
20081;DHT22;10200;49.232;9.222;2022-08-19T14:39:39;27.30;55.80
20081;DHT22;10200;49.232;9.222;2022-08-19T14:42:07;27.20;56.50
20081;DHT22;10200;49.232;9.222;2022-08-19T14:44:34;27.10;57.80
20081;DHT22;10200;49.232;9.222;2022-08-19T14:46:59;27.00;57.90
20081;DHT22;10200;49.232;9.222;2022-08-19T14:49:25;26.90;58.40
20081;DHT22;10200;49.232;9.222;2022-08-19T14:51:51;26.80;59.20
20081;DHT22;10200;49.232;9.222;2022-08-19T14:54:16;26.70;59.00
20081;DHT22;10200;49.232;9.222;2022-08-19T14:56:42;26.70;59.00
20081;DHT22;10200;49.232;9.222;2022-08-19T14:59:08;26.60;59.10
20081;DHT22;10200;49.232;9.222;2022-08-19T15:01:34;26.60;59.40
20081;DHT22;10200;49.232;9.222;2022-08-19T15:04:00;26.50;59.40
20081;DHT22;10200;49.232;9.222;2022-08-19T15:06:28;26.50;59.60
20081;DHT22;10200;49.232;9.222;2022-08-19T15:08:54;26.40;60.00
20081;DHT22;10200;49.232;9.222;2022-08-19T15:11:22;26.40;60.10
20081;DHT22;10200;49.232;9.222;2022-08-19T15:13:49;26.40;60.40
20081;DHT22;10200;49.232;9.222;2022-08-19T15:16:16;26.40;61.60
20081;DHT22;10200;49.232;9.222;2022-08-19T15:18:42;26.40;60.80
20081;DHT22;10200;49.232;9.222;2022-08-19T15:21:11;26.40;61.10
20081;DHT22;10200;49.232;9.222;2022-08-19T15:23:38;26.40;61.20
20081;DHT22;10200;49.232;9.222;2022-08-19T15:26:04;26.40;61.40
20081;DHT22;10200;49.232;9.222;2022-08-19T15:28:31;26.50;61.30
20081;DHT22;10200;49.232;9.222;2022-08-19T15:30:57;26.60;60.90
20081;DHT22;10200;49.232;9.222;2022-08-19T15:33:23;26.80;60.70
20081;DHT22;10200;49.232;9.222;2022-08-19T15:35:49;27.00;60.60
20081;DHT22;10200;49.232;9.222;2022-08-19T15:38:17;27.30;59.70
20081;DHT22;10200;49.232;9.222;2022-08-19T15:40:47;27.40;58.60
20081;DHT22;10200;49.232;9.222;2022-08-19T15:43:13;27.50;58.20
20081;DHT22;10200;49.232;9.222;2022-08-19T15:45:40;27.60;58.10
20081;DHT22;10200;49.232;9.222;2022-08-19T15:48:06;27.60;58.00